Time;durP1;ratioP1;P1;durP2;ratioP2;P2;SDS_P1;SDS_P2;PMS_P1;PMS_P2;Temp;Humidity;BMP_temperature;BMP_pressure;BME280_temperature;BME280_humidity;BME280_pressure;Samples;Min_cycle;Max_cycle;Signal;HPM_P1;HPM_P2
2023/10/03 00:00:24;;;;;;;5.25;3.72;;;;;;;;;;10329719;28;20114;-65
2023/10/03 00:05:31;;;;;;;7.55;4.10;;;;;;;;;;10330015;28;20041;-66
2023/10/03 00:10:33;;;;;;;6.57;3.83;;;;;;;;;;10329775;28;20058;-66
2023/10/03 00:15:35;;;;;;;5.20;3.15;;;;;;;;;;10329517;28;20490;-67
2023/10/03 00:20:38;;;;;;;5.38;3.08;;;;;;;;;;10329022;28;20273;-66
2023/10/03 00:25:39;;;;;;;3.70;3.17;;;;;;;;;;10329672;28;20076;-66
2023/10/03 00:30:40;;;;;;;4.95;3.75;;;;;;;;;;10328999;28;20081;-69
2023/10/03 00:35:40;;;;;;;4.95;3.38;;;;;;;;;;10329721;28;20037;-67
2023/10/03 00:40:48;;;;;;;3.60;3.30;;;;;;;;;;10328644;28;20474;-68
2023/10/03 00:45:49;;;;;;;6.95;4.05;;;;;;;;;;10329158;28;20041;-68
2023/10/03 00:50:53;;;;;;;3.90;3.50;;;;;;;;;;10327548;28;20045;-68
2023/10/03 00:55:59;;;;;;;5.55;3.70;;;;;;;;;;10327724;28;20027;-68
2023/10/03 01:00:59;;;;;;;4.45;3.67;;;;;;;;;;10326202;28;20030;-66
2023/10/03 01:06:12;;;;;;;4.20;3.22;;;;;;;;;;10328143;28;20030;-67
2023/10/03 01:11:15;;;;;;;4.05;3.60;;;;;;;;;;10327469;28;20069;-66
2023/10/03 01:16:31;;;;;;;7.18;3.30;;;;;;;;;;10327715;28;20030;-66
2023/10/03 01:21:32;;;;;;;4.15;3.22;;;;;;;;;;10327612;28;20026;-67
2023/10/03 01:26:32;;;;;;;3.88;3.42;;;;;;;;;;10326979;28;20386;-66
2023/10/03 01:31:33;;;;;;;4.65;3.50;;;;;;;;;;10326043;28;20348;-68
2023/10/03 01:36:34;;;;;;;4.97;3.28;;;;;;;;;;10327102;28;20042;-67
2023/10/03 01:41:34;;;;;;;3.78;2.92;;;;;;;;;;10326686;28;20201;-67
2023/10/03 01:46:38;;;;;;;4.35;2.85;;;;;;;;;;10326968;28;20022;-68
2023/10/03 01:51:39;;;;;;;5.32;3.50;;;;;;;;;;10326132;28;20426;-68
2023/10/03 01:56:39;;;;;;;3.53;3.05;;;;;;;;;;10326946;28;20042;-67
2023/10/03 02:01:40;;;;;;;4.05;3.38;;;;;;;;;;10326102;28;20022;-69
2023/10/03 02:06:40;;;;;;;4.78;3.00;;;;;;;;;;10326451;28;20037;-65
2023/10/03 02:11:41;;;;;;;4.00;3.08;;;;;;;;;;10326603;28;20038;-66
2023/10/03 02:16:46;;;;;;;4.18;3.42;;;;;;;;;;10326916;28;20110;-67
2023/10/03 02:21:47;;;;;;;4.97;2.88;;;;;;;;;;10326363;28;20221;-66
2023/10/03 02:26:47;;;;;;;3.65;3.20;;;;;;;;;;10326118;28;20037;-65
2023/10/03 02:31:49;;;;;;;6.47;3.40;;;;;;;;;;10325581;28;20093;-66
2023/10/03 02:36:51;;;;;;;4.03;2.85;;;;;;;;;;10326360;28;20478;-64
2023/10/03 02:41:52;;;;;;;4.75;3.13;;;;;;;;;;10328839;28;20038;-65
2023/10/03 02:46:52;;;;;;;4.13;2.97;;;;;;;;;;10333019;28;20038;-66
2023/10/03 02:51:53;;;;;;;3.65;2.97;;;;;;;;;;10332761;28;20035;-67
2023/10/03 02:56:53;;;;;;;3.28;2.97;;;;;;;;;;10333352;28;20041;-62
2023/10/03 03:01:56;;;;;;;4.22;3.42;;;;;;;;;;10332624;28;20053;-67
2023/10/03 03:07:02;;;;;;;5.93;3.40;;;;;;;;;;10332089;28;20114;-66
2023/10/03 03:12:06;;;;;;;3.80;3.03;;;;;;;;;;10332674;28;20050;-67
2023/10/03 03:17:13;;;;;;;3.80;3.08;;;;;;;;;;10331782;28;20023;-67
2023/10/03 03:22:15;;;;;;;2.80;2.60;;;;;;;;;;10329797;28;20057;-69
2023/10/03 03:27:18;;;;;;;3.28;2.70;;;;;;;;;;10331535;28;20060;-66
2023/10/03 03:32:18;;;;;;;5.68;3.17;;;;;;;;;;10329391;28;20026;-67
2023/10/03 03:37:22;;;;;;;4.68;3.22;;;;;;;;;;10331408;28;20026;-67
2023/10/03 03:42:23;;;;;;;6.05;3.10;;;;;;;;;;10332166;28;20034;-68
2023/10/03 03:47:24;;;;;;;3.65;3.25;;;;;;;;;;10330204;28;20077;-65
2023/10/03 03:52:25;;;;;;;3.20;2.70;;;;;;;;;;10329209;28;20077;-65
2023/10/03 03:57:27;;;;;;;3.38;2.92;;;;;;;;;;10330156;28;20035;-66
2023/10/03 04:02:27;;;;;;;3.47;3.08;;;;;;;;;;10330314;28;20045;-65
2023/10/03 04:07:29;;;;;;;3.20;2.90;;;;;;;;;;10329505;28;20030;-66
2023/10/03 04:12:30;;;;;;;3.97;2.92;;;;;;;;;;10329935;28;20050;-66
2023/10/03 04:17:33;;;;;;;5.70;3.17;;;;;;;;;;10330166;28;20042;-66
2023/10/03 04:22:33;;;;;;;7.32;2.90;;;;;;;;;;10329331;28;20381;-66
2023/10/03 04:27:35;;;;;;;3.00;2.70;;;;;;;;;;10329057;28;20027;-65
2023/10/03 04:32:35;;;;;;;4.28;2.85;;;;;;;;;;10329125;28;20030;-66
2023/10/03 04:37:36;;;;;;;2.78;2.58;;;;;;;;;;10329368;28;20517;-65
2023/10/03 04:42:46;;;;;;;7.32;3.13;;;;;;;;;;10328708;28;20034;-65
2023/10/03 04:47:47;;;;;;;3.97;3.03;;;;;;;;;;10328661;28;20026;-67
2023/10/03 04:52:48;;;;;;;5.00;2.78;;;;;;;;;;10328679;28;20026;-66
2023/10/03 04:57:51;;;;;;;3.10;2.80;;;;;;;;;;10327480;28;20033;-68
2023/10/03 05:02:53;;;;;;;3.97;2.92;;;;;;;;;;10328334;28;20496;-67
2023/10/03 05:07:58;;;;;;;5.28;3.22;;;;;;;;;;10326764;28;20034;-65
2023/10/03 05:12:59;;;;;;;5.10;3.45;;;;;;;;;;10327691;28;20521;-67
2023/10/03 05:18:00;;;;;;;5.20;3.42;;;;;;;;;;10327766;28;20031;-67
2023/10/03 05:23:04;;;;;;;5.20;2.88;;;;;;;;;;10328154;28;20174;-67
2023/10/03 05:28:05;;;;;;;4.70;3.22;;;;;;;;;;10328268;28;20042;-68
2023/10/03 05:33:06;;;;;;;6.28;3.50;;;;;;;;;;10327153;28;20359;-69
2023/10/03 05:38:08;;;;;;;3.95;3.05;;;;;;;;;;10328205;28;20241;-67
2023/10/03 05:43:08;;;;;;;5.80;3.08;;;;;;;;;;10327057;28;20457;-67
2023/10/03 05:48:10;;;;;;;5.03;2.95;;;;;;;;;;10326567;28;20030;-67
2023/10/03 05:53:10;;;;;;;8.98;3.17;;;;;;;;;;10327199;28;20038;-62
2023/10/03 05:58:11;;;;;;;3.17;2.97;;;;;;;;;;10326943;28;20032;-67
2023/10/03 06:03:12;;;;;;;4.90;3.88;;;;;;;;;;10326471;28;20121;-64
2023/10/03 06:08:12;;;;;;;5.72;3.53;;;;;;;;;;10327235;28;20030;-62
2023/10/03 06:13:13;;;;;;;7.00;4.32;;;;;;;;;;10326392;28;20203;-63
2023/10/03 06:18:14;;;;;;;5.05;3.53;;;;;;;;;;10331153;28;20085;-62
2023/10/03 06:23:14;;;;;;;12.20;4.55;;;;;;;;;;10333771;28;20056;-65
2023/10/03 06:28:15;;;;;;;8.35;4.57;;;;;;;;;;10333367;28;20030;-65
2023/10/03 06:33:15;;;;;;;7.53;5.20;;;;;;;;;;10333950;28;20049;-65
2023/10/03 06:38:17;;;;;;;6.30;4.50;;;;;;;;;;10334271;28;20034;-65
2023/10/03 06:43:18;;;;;;;19.38;5.75;;;;;;;;;;10333313;28;20667;-64
2023/10/03 06:48:21;;;;;;;11.55;6.40;;;;;;;;;;10332475;28;20335;-64
2023/10/03 06:53:23;;;;;;;18.08;7.88;;;;;;;;;;10333683;28;20042;-64
2023/10/03 06:58:24;;;;;;;18.08;8.48;;;;;;;;;;10332899;28;20022;-63
2023/10/03 07:03:24;;;;;;;26.40;10.25;;;;;;;;;;10312416;28;20072;-68
2023/10/03 07:08:26;;;;;;;20.98;9.65;;;;;;;;;;10312634;28;20355;-67
2023/10/03 07:13:27;;;;;;;22.83;8.52;;;;;;;;;;10325276;28;20097;-69
2023/10/03 07:18:27;;;;;;;12.82;8.25;;;;;;;;;;10325551;28;20073;-69
2023/10/03 07:23:28;;;;;;;12.63;7.82;;;;;;;;;;10324927;28;20104;-69
2023/10/03 07:28:29;;;;;;;13.70;7.82;;;;;;;;;;10323850;28;20062;-66
2023/10/03 07:33:31;;;;;;;14.35;7.63;;;;;;;;;;10324904;28;20105;-67
2023/10/03 07:38:32;;;;;;;14.75;7.53;;;;;;;;;;10324573;28;20030;-67
2023/10/03 07:43:33;;;;;;;17.08;7.20;;;;;;;;;;10325467;28;20035;-67
2023/10/03 07:48:34;;;;;;;13.57;7.05;;;;;;;;;;10324233;28;20023;-66
2023/10/03 07:53:36;;;;;;;19.42;7.28;;;;;;;;;;10324076;28;20166;-67
2023/10/03 07:58:37;;;;;;;8.98;6.85;;;;;;;;;;10323755;28;20037;-67
2023/10/03 08:03:37;;;;;;;21.30;6.72;;;;;;;;;;10312716;28;20378;-66
2023/10/03 08:08:38;;;;;;;15.02;7.28;;;;;;;;;;10320876;28;20034;-66
2023/10/03 08:13:41;;;;;;;9.45;6.15;;;;;;;;;;10321892;28;20049;-67
2023/10/03 08:18:46;;;;;;;9.98;7.15;;;;;;;;;;10321455;28;20026;-66
2023/10/03 08:23:51;;;;;;;14.82;6.57;;;;;;;;;;10321915;28;20031;-67
2023/10/03 08:28:59;;;;;;;13.02;6.70;;;;;;;;;;10322054;28;20034;-63
2023/10/03 08:34:01;;;;;;;10.38;7.22;;;;;;;;;;10320910;28;20584;-66
2023/10/03 08:39:13;;;;;;;8.82;6.82;;;;;;;;;;10319909;28;20478;-66
2023/10/03 08:44:15;;;;;;;10.30;7.07;;;;;;;;;;10320861;28;20470;-67
2023/10/03 08:49:19;;;;;;;12.77;7.50;;;;;;;;;;10319920;28;20382;-66
2023/10/03 08:54:21;;;;;;;9.63;6.93;;;;;;;;;;10320779;28;20272;-62
2023/10/03 08:59:21;;;;;;;14.20;7.88;;;;;;;;;;10320585;28;20081;-63
2023/10/03 09:04:23;;;;;;;11.85;6.50;;;;;;;;;;10319902;28;20493;-63
2023/10/03 09:09:24;;;;;;;14.77;7.80;;;;;;;;;;10318253;28;20486;-62
2023/10/03 09:14:25;;;;;;;12.45;7.13;;;;;;;;;;10319429;28;20053;-63
2023/10/03 09:19:44;;;;;;;10.40;7.30;;;;;;;;;;10318512;28;20031;-63
2023/10/03 09:24:45;;;;;;;10.18;6.70;;;;;;;;;;10319374;28;20389;-63
2023/10/03 09:29:49;;;;;;;12.82;6.72;;;;;;;;;;10319519;28;20114;-65
2023/10/03 09:34:56;;;;;;;11.82;6.60;;;;;;;;;;10319445;28;20023;-62
2023/10/03 09:39:59;;;;;;;7.90;6.33;;;;;;;;;;10318231;28;20378;-63
2023/10/03 09:45:00;;;;;;;12.68;6.72;;;;;;;;;;10317098;28;20026;-63
2023/10/03 09:50:04;;;;;;;10.60;6.82;;;;;;;;;;10319173;28;20038;-65
2023/10/03 09:55:20;;;;;;;11.35;7.03;;;;;;;;;;10327370;28;20022;-63
2023/10/03 10:00:50;;;;;;;11.90;6.38;;;;;;;;;;10327424;28;20026;-64
2023/10/03 10:06:24;;;;;;;11.30;7.10;;;;;;;;;;10327278;28;20058;-62
2023/10/03 10:11:30;;;;;;;10.45;7.43;;;;;;;;;;10326326;28;20073;-61
2023/10/03 10:16:31;;;;;;;17.48;7.78;;;;;;;;;;10327043;28;20169;-62
2023/10/03 10:21:39;;;;;;;24.38;9.23;;;;;;;;;;10326414;28;20035;-62
2023/10/03 10:26:40;;;;;;;16.85;8.57;;;;;;;;;;10325944;28;20034;-64
2023/10/03 10:31:44;;;;;;;21.83;9.40;;;;;;;;;;10326331;28;20057;-64
2023/10/03 10:37:09;;;;;;;17.17;9.90;;;;;;;;;;10324011;28;20031;-62
2023/10/03 10:42:10;;;;;;;23.92;10.95;;;;;;;;;;10325710;28;20027;-64
2023/10/03 10:47:14;;;;;;;14.65;10.02;;;;;;;;;;10325209;28;20379;-64
2023/10/03 10:52:17;;;;;;;14.73;9.20;;;;;;;;;;10324185;28;20034;-64
2023/10/03 10:57:18;;;;;;;15.20;9.35;;;;;;;;;;10324838;28;20054;-65
2023/10/03 11:02:26;;;;;;;15.35;8.82;;;;;;;;;;10323870;28;20143;-65
2023/10/03 11:07:29;;;;;;;15.97;10.40;;;;;;;;;;10325293;28;20030;-64
2023/10/03 11:12:29;;;;;;;14.43;8.90;;;;;;;;;;10323153;28;20464;-66
2023/10/03 11:17:33;;;;;;;14.90;9.30;;;;;;;;;;10323996;28;20034;-65
2023/10/03 11:22:36;;;;;;;17.90;8.73;;;;;;;;;;10324090;28;20129;-68
2023/10/03 11:27:37;;;;;;;10.30;7.38;;;;;;;;;;10323431;28;20109;-63
2023/10/03 11:32:38;;;;;;;15.27;7.22;;;;;;;;;;10323683;28;20053;-63
2023/10/03 11:37:43;;;;;;;17.25;7.50;;;;;;;;;;10322803;28;20366;-63
2023/10/03 11:43:02;;;;;;;8.38;7.20;;;;;;;;;;10323162;28;20046;-63
2023/10/03 11:48:17;;;;;;;;;;;;;;;;;;10322703;28;20041;-63
2023/10/03 11:53:18;;;;;;;12.00;7.22;;;;;;;;;;10322436;28;19914;-61
2023/10/03 11:58:19;;;;;;;12.15;7.15;;;;;;;;;;10322494;28;20466;-62
2023/10/03 12:03:20;;;;;;;11.90;6.45;;;;;;;;;;10319994;28;20037;-63
2023/10/03 12:08:23;;;;;;;12.27;6.93;;;;;;;;;;10322067;28;20064;-66
2023/10/03 12:13:24;;;;;;;10.65;7.38;;;;;;;;;;10320609;28;20390;-62
2023/10/03 12:18:26;;;;;;;10.27;7.32;;;;;;;;;;10322040;28;20065;-63
2023/10/03 12:23:27;;;;;;;10.63;6.93;;;;;;;;;;10321873;28;20032;-64
2023/10/03 12:28:28;;;;;;;8.35;7.00;;;;;;;;;;10320970;28;20037;-62
2023/10/03 12:33:30;;;;;;;10.88;7.07;;;;;;;;;;10321197;28;20161;-65
2023/10/03 12:38:31;;;;;;;9.25;6.93;;;;;;;;;;10320701;28;20747;-65
2023/10/03 12:43:34;;;;;;;9.70;7.13;;;;;;;;;;10320699;28;20482;-65
2023/10/03 12:48:34;;;;;;;12.90;7.05;;;;;;;;;;10319893;28;20104;-64
2023/10/03 12:53:38;;;;;;;13.63;7.03;;;;;;;;;;10319742;28;20026;-64
2023/10/03 12:58:39;;;;;;;16.65;6.57;;;;;;;;;;10319351;28;20038;-63
2023/10/03 13:03:39;;;;;;;14.02;7.28;;;;;;;;;;10318882;28;20025;-63
2023/10/03 13:08:43;;;;;;;11.05;7.25;;;;;;;;;;10319618;28;20034;-64
2023/10/03 13:13:47;;;;;;;11.63;6.75;;;;;;;;;;10318640;28;20310;-62
2023/10/03 13:18:50;;;;;;;9.60;7.07;;;;;;;;;;10319740;28;20046;-63
2023/10/03 13:23:50;;;;;;;13.70;7.45;;;;;;;;;;10319881;28;20065;-66
2023/10/03 13:28:52;;;;;;;9.40;7.15;;;;;;;;;;10317996;28;20045;-61
2023/10/03 13:33:52;;;;;;;8.77;6.22;;;;;;;;;;10319873;28;20074;-63
2023/10/03 13:38:54;;;;;;;10.10;6.68;;;;;;;;;;10319478;28;20027;-67
2023/10/03 13:43:55;;;;;;;9.93;6.97;;;;;;;;;;10318519;28;20321;-66
2023/10/03 13:48:57;;;;;;;10.55;7.40;;;;;;;;;;10317528;28;20257;-64
2023/10/03 13:53:59;;;;;;;15.02;7.70;;;;;;;;;;10318537;28;20418;-65
2023/10/03 13:59:00;;;;;;;15.65;7.32;;;;;;;;;;10319135;28;20022;-65
2023/10/03 14:04:03;;;;;;;12.68;6.93;;;;;;;;;;10318385;28;20033;-68
2023/10/03 14:09:05;;;;;;;11.52;6.38;;;;;;;;;;10318634;28;20037;-66
2023/10/03 14:14:06;;;;;;;13.38;6.55;;;;;;;;;;10317652;28;20049;-66
2023/10/03 14:19:07;;;;;;;20.33;6.90;;;;;;;;;;10318264;28;20045;-60
2023/10/03 14:24:09;;;;;;;14.27;7.10;;;;;;;;;;10319584;28;20533;-65
2023/10/03 14:29:09;;;;;;;12.75;6.95;;;;;;;;;;10318996;28;20034;-65
2023/10/03 14:34:10;;;;;;;7.93;6.25;;;;;;;;;;10319124;28;20345;-62
2023/10/03 14:39:12;;;;;;;9.27;6.28;;;;;;;;;;10323845;28;20026;-61
2023/10/03 14:44:13;;;;;;;10.63;6.95;;;;;;;;;;10327472;28;20390;-62
2023/10/03 14:49:14;;;;;;;9.23;6.40;;;;;;;;;;10327541;28;20030;-61
2023/10/03 14:54:18;;;;;;;10.98;6.60;;;;;;;;;;10325805;28;20037;-63
2023/10/03 14:59:19;;;;;;;12.45;6.15;;;;;;;;;;10326210;28;20042;-63
2023/10/03 15:04:21;;;;;;;11.52;6.45;;;;;;;;;;10326906;28;20030;-64
2023/10/03 15:09:22;;;;;;;11.70;6.85;;;;;;;;;;10325734;28;20208;-60
2023/10/03 15:14:24;;;;;;;7.53;5.82;;;;;;;;;;10325804;28;20184;-62
2023/10/03 15:19:24;;;;;;;12.32;6.65;;;;;;;;;;10324897;28;20117;-63
2023/10/03 15:24:25;;;;;;;8.60;7.03;;;;;;;;;;10322620;28;20095;-62
2023/10/03 15:29:25;;;;;;;7.90;6.20;;;;;;;;;;10323409;28;20030;-61
2023/10/03 15:34:32;;;;;;;8.52;5.38;;;;;;;;;;10324301;28;20018;-62
2023/10/03 15:39:33;;;;;;;12.95;6.50;;;;;;;;;;10322882;28;20038;-63
2023/10/03 15:44:34;;;;;;;9.63;6.53;;;;;;;;;;10324100;28;20027;-63
2023/10/03 15:49:35;;;;;;;15.48;6.75;;;;;;;;;;10323798;28;20402;-61
2023/10/03 15:54:35;;;;;;;14.30;7.07;;;;;;;;;;10323974;28;20053;-61
2023/10/03 15:59:36;;;;;;;11.65;6.40;;;;;;;;;;10321748;28;20033;-62
2023/10/03 16:04:37;;;;;;;9.80;6.63;;;;;;;;;;10321793;28;20465;-63
2023/10/03 16:09:40;;;;;;;9.10;6.85;;;;;;;;;;10322632;28;20081;-63
2023/10/03 16:14:41;;;;;;;17.83;7.15;;;;;;;;;;10323313;28;20520;-61
2023/10/03 16:19:44;;;;;;;18.23;7.07;;;;;;;;;;10323430;28;20092;-62
2023/10/03 16:24:45;;;;;;;10.95;7.68;;;;;;;;;;10323230;28;20077;-62
2023/10/03 16:29:45;;;;;;;13.48;7.82;;;;;;;;;;10323306;28;20375;-62
2023/10/03 16:34:46;;;;;;;15.50;7.35;;;;;;;;;;10321700;28;20033;-65
2023/10/03 16:39:46;;;;;;;12.10;8.82;;;;;;;;;;10321892;28;20033;-66
2023/10/03 16:44:47;;;;;;;16.45;8.25;;;;;;;;;;10321379;28;20030;-62
2023/10/03 16:49:48;;;;;;;16.15;8.10;;;;;;;;;;10321510;28;20034;-62
2023/10/03 16:54:48;;;;;;;18.98;8.15;;;;;;;;;;10321938;28;20030;-62
2023/10/03 16:59:50;;;;;;;13.88;8.35;;;;;;;;;;10320737;28;20045;-61
2023/10/03 17:04:52;;;;;;;14.23;7.78;;;;;;;;;;10321818;28;20029;-62
2023/10/03 17:09:52;;;;;;;13.15;8.90;;;;;;;;;;10320895;28;20518;-62
2023/10/03 17:14:53;;;;;;;21.83;9.23;;;;;;;;;;10320629;28;20038;-61
2023/10/03 17:19:54;;;;;;;14.77;10.20;;;;;;;;;;10320241;28;20027;-61
2023/10/03 17:24:54;;;;;;;20.65;10.88;;;;;;;;;;10319244;28;20030;-61
2023/10/03 17:29:55;;;;;;;26.08;11.70;;;;;;;;;;10317886;28;20029;-62
2023/10/03 17:34:57;;;;;;;28.77;11.88;;;;;;;;;;10319132;28;20065;-62
2023/10/03 17:39:58;;;;;;;21.20;12.05;;;;;;;;;;10317402;28;20109;-62
2023/10/03 17:44:58;;;;;;;23.40;11.45;;;;;;;;;;10319614;28;20034;-59
2023/10/03 17:50:00;;;;;;;18.33;11.18;;;;;;;;;;10320456;28;20034;-60
2023/10/03 17:55:00;;;;;;;19.20;11.13;;;;;;;;;;10309455;28;20027;-60
2023/10/03 18:00:12;;;;;;;26.80;11.05;;;;;;;;;;10318316;28;20030;-63
2023/10/03 18:05:15;;;;;;;22.45;12.27;;;;;;;;;;10319795;28;20038;-66
2023/10/03 18:10:18;;;;;;;29.23;12.40;;;;;;;;;;10319046;28;20057;-65
2023/10/03 18:15:18;;;;;;;25.13;12.57;;;;;;;;;;10332503;28;20541;-66
2023/10/03 18:20:19;;;;;;;26.00;12.95;;;;;;;;;;10333649;28;20032;-65
2023/10/03 18:25:20;;;;;;;25.67;14.57;;;;;;;;;;10334702;28;20026;-67
2023/10/03 18:30:22;;;;;;;28.83;14.18;;;;;;;;;;10335160;28;20418;-65
2023/10/03 18:35:23;;;;;;;34.15;14.73;;;;;;;;;;10332722;28;20038;-65
2023/10/03 18:40:23;;;;;;;27.70;13.77;;;;;;;;;;10330713;28;20034;-65
2023/10/03 18:45:24;;;;;;;43.88;13.77;;;;;;;;;;10331664;28;20356;-65
2023/10/03 18:50:27;;;;;;;28.73;14.02;;;;;;;;;;10332559;28;20061;-65
2023/10/03 18:55:28;;;;;;;34.67;13.63;;;;;;;;;;10333375;28;20406;-66
2023/10/03 19:00:28;;;;;;;31.73;13.68;;;;;;;;;;10332795;28;20026;-65
2023/10/03 19:05:29;;;;;;;29.92;13.93;;;;;;;;;;10332476;28;20027;-66
2023/10/03 19:10:31;;;;;;;30.77;13.18;;;;;;;;;;10332195;28;20061;-65
2023/10/03 19:15:37;;;;;;;22.83;12.80;;;;;;;;;;10332235;28;20497;-66
2023/10/03 19:20:38;;;;;;;29.33;13.23;;;;;;;;;;10332817;28;20038;-66
2023/10/03 19:25:38;;;;;;;30.98;12.45;;;;;;;;;;10331968;28;20030;-66
2023/10/03 19:30:39;;;;;;;25.25;12.73;;;;;;;;;;10332140;28;20031;-65
2023/10/03 19:35:39;;;;;;;26.88;12.18;;;;;;;;;;10331141;28;20022;-65
2023/10/03 19:40:41;;;;;;;24.60;10.82;;;;;;;;;;10330165;28;20038;-66
2023/10/03 19:45:41;;;;;;;21.98;11.38;;;;;;;;;;10331158;28;20553;-66
2023/10/03 19:50:42;;;;;;;23.05;11.30;;;;;;;;;;10330763;28;20073;-66
2023/10/03 19:55:44;;;;;;;20.58;11.98;;;;;;;;;;10330901;28;20034;-66
2023/10/03 20:00:46;;;;;;;25.90;11.10;;;;;;;;;;10330591;28;20371;-66
2023/10/03 20:05:46;;;;;;;16.70;11.30;;;;;;;;;;10328987;28;20030;-66
2023/10/03 20:10:47;;;;;;;17.55;10.50;;;;;;;;;;10330215;28;20042;-65
2023/10/03 20:15:49;;;;;;;17.05;10.55;;;;;;;;;;10331119;28;20041;-65
2023/10/03 20:20:49;;;;;;;18.92;10.65;;;;;;;;;;10328600;28;20037;-65
2023/10/03 20:25:50;;;;;;;17.65;10.18;;;;;;;;;;10329957;28;20467;-65
2023/10/03 20:30:51;;;;;;;16.00;10.43;;;;;;;;;;10329452;28;20034;-66
2023/10/03 20:35:52;;;;;;;14.93;10.00;;;;;;;;;;10328874;28;20041;-65
2023/10/03 20:40:53;;;;;;;19.75;10.68;;;;;;;;;;10329526;28;20332;-67
2023/10/03 20:45:54;;;;;;;18.50;10.32;;;;;;;;;;10329244;28;20273;-66
2023/10/03 20:50:55;;;;;;;14.93;9.85;;;;;;;;;;10328413;28;20139;-65
2023/10/03 20:55:56;;;;;;;17.52;10.43;;;;;;;;;;10329677;28;20037;-66
2023/10/03 21:00:57;;;;;;;21.05;10.05;;;;;;;;;;10328542;28;20034;-66
2023/10/03 21:06:00;;;;;;;16.45;10.18;;;;;;;;;;10328283;28;20049;-66
2023/10/03 21:11:01;;;;;;;19.45;10.85;;;;;;;;;;10328280;28;20048;-66
2023/10/03 21:16:04;;;;;;;13.45;10.23;;;;;;;;;;10329107;28;20033;-65
2023/10/03 21:21:11;;;;;;;13.82;10.07;;;;;;;;;;10328220;28;20034;-65
2023/10/03 21:26:11;;;;;;;16.83;10.18;;;;;;;;;;10326959;28;20033;-66
2023/10/03 21:31:14;;;;;;;18.20;10.57;;;;;;;;;;10327471;28;20033;-65
2023/10/03 21:36:16;;;;;;;11.88;10.07;;;;;;;;;;10327290;28;20392;-65
2023/10/03 21:41:17;;;;;;;18.02;10.50;;;;;;;;;;10327952;28;20038;-65
2023/10/03 21:46:17;;;;;;;13.18;10.75;;;;;;;;;;10326498;28;20383;-65
2023/10/03 21:51:18;;;;;;;16.10;11.50;;;;;;;;;;10326148;28;20030;-65
2023/10/03 21:56:19;;;;;;;16.20;10.18;;;;;;;;;;10326435;28;20029;-65
2023/10/03 22:01:25;;;;;;;14.77;10.27;;;;;;;;;;10326078;28;20026;-65
2023/10/03 22:06:26;;;;;;;13.82;9.75;;;;;;;;;;10324856;28;20398;-63
2023/10/03 22:11:27;;;;;;;25.75;11.02;;;;;;;;;;10325472;28;20053;-63
2023/10/03 22:16:27;;;;;;;18.88;10.40;;;;;;;;;;10323452;28;20076;-63
2023/10/03 22:21:30;;;;;;;23.77;11.13;;;;;;;;;;10324846;28;20026;-63
2023/10/03 22:26:30;;;;;;;15.05;10.18;;;;;;;;;;10325899;28;20098;-63
2023/10/03 22:31:31;;;;;;;15.80;10.45;;;;;;;;;;10326002;28;20493;-63
2023/10/03 22:36:32;;;;;;;12.93;10.30;;;;;;;;;;10325833;28;20507;-63
2023/10/03 22:41:32;;;;;;;17.42;12.57;;;;;;;;;;10325981;28;20442;-63
2023/10/03 22:46:33;;;;;;;16.83;12.73;;;;;;;;;;10325719;28;20030;-63
2023/10/03 22:51:33;;;;;;;19.88;13.73;;;;;;;;;;10325961;28;20038;-63
2023/10/03 22:56:34;;;;;;;20.13;13.43;;;;;;;;;;10325593;28;20026;-63
2023/10/03 23:01:35;;;;;;;20.60;14.07;;;;;;;;;;10332494;28;20030;-62
2023/10/03 23:06:37;;;;;;;19.17;13.15;;;;;;;;;;10333041;28;20022;-63
2023/10/03 23:11:38;;;;;;;19.65;14.18;;;;;;;;;;10332965;28;20055;-63
2023/10/03 23:16:40;;;;;;;21.90;12.40;;;;;;;;;;10333145;28;20030;-63
2023/10/03 23:21:40;;;;;;;17.48;13.77;;;;;;;;;;10332314;28;20486;-62
2023/10/03 23:26:42;;;;;;;19.77;15.23;;;;;;;;;;10332746;28;20061;-62
2023/10/03 23:31:42;;;;;;;21.00;15.18;;;;;;;;;;10332371;28;20030;-63
2023/10/03 23:36:43;;;;;;;22.33;15.68;;;;;;;;;;10331876;28;20039;-63
2023/10/03 23:41:43;;;;;;;25.10;15.60;;;;;;;;;;10332144;28;20085;-63
2023/10/03 23:46:44;;;;;;;18.65;15.60;;;;;;;;;;10331593;28;20030;-63
2023/10/03 23:51:44;;;;;;;19.95;16.08;;;;;;;;;;10331199;28;20030;-62
2023/10/03 23:56:50;;;;;;;28.45;16.80;;;;;;;;;;10331712;28;20026;-63
